Time;durP1;ratioP1;P1;durP2;ratioP2;P2;SDS_P1;SDS_P2;PMS_P1;PMS_P2;Temp;Humidity;BMP_temperature;BMP_pressure;BME280_temperature;BME280_humidity;BME280_pressure;Samples;Min_cycle;Max_cycle;Signal;HPM_P1;HPM_P2
2021/12/03 00:00:44;;;;;;;52.15;25.70;;;;;;;;;;4982825;28;20035;-75
2021/12/03 00:03:11;;;;;;;38.45;24.73;;;;;;;;;;4986260;28;20041;-73
2021/12/03 00:05:37;;;;;;;48.92;25.15;;;;;;;;;;4994274;28;20110;-73
2021/12/03 00:08:04;;;;;;;51.83;24.65;;;;;;;;;;4974822;28;20051;-73
2021/12/03 00:10:30;;;;;;;39.53;23.60;;;;;;;;;;4975116;28;20031;-72
2021/12/03 00:12:58;;;;;;;44.83;25.25;;;;;;;;;;4988652;28;20089;-72
2021/12/03 00:15:25;;;;;;;39.50;22.63;;;;;;;;;;4979246;28;20022;-73
2021/12/03 00:17:51;;;;;;;34.47;21.10;;;;;;;;;;4974175;28;20353;-73
2021/12/03 00:20:17;;;;;;;34.60;19.50;;;;;;;;;;4974773;28;21029;-74
2021/12/03 00:22:46;;;;;;;35.42;18.85;;;;;;;;;;4975554;28;20467;-73
2021/12/03 00:25:12;;;;;;;37.80;19.13;;;;;;;;;;4990252;28;20381;-73
2021/12/03 00:27:39;;;;;;;35.03;18.50;;;;;;;;;;4986975;28;20105;-73
2021/12/03 00:30:06;;;;;;;36.20;19.05;;;;;;;;;;4975022;28;20124;-73
2021/12/03 00:32:32;;;;;;;30.05;18.65;;;;;;;;;;4991892;28;20038;-74
2021/12/03 00:34:58;;;;;;;46.78;17.88;;;;;;;;;;4977470;28;20027;-73
2021/12/03 00:37:25;;;;;;;36.33;18.83;;;;;;;;;;4972508;28;20026;-73
2021/12/03 00:39:51;;;;;;;44.47;18.27;;;;;;;;;;4973920;28;20484;-74
2021/12/03 00:42:18;;;;;;;43.88;18.83;;;;;;;;;;4972794;28;20496;-73
2021/12/03 00:44:51;;;;;;;38.30;19.08;;;;;;;;;;4977027;28;20089;-74
2021/12/03 00:47:17;;;;;;;37.25;18.10;;;;;;;;;;4974192;28;20041;-74
2021/12/03 00:49:44;;;;;;;39.30;18.48;;;;;;;;;;4973722;28;20031;-72
2021/12/03 00:52:10;;;;;;;39.40;17.33;;;;;;;;;;4974865;28;20027;-73
2021/12/03 00:54:36;;;;;;;38.80;19.58;;;;;;;;;;4974471;28;20057;-73
2021/12/03 00:57:03;;;;;;;42.85;19.67;;;;;;;;;;4975484;28;20035;-73
2021/12/03 00:59:29;;;;;;;39.13;19.33;;;;;;;;;;4977197;28;20026;-73
2021/12/03 01:01:55;;;;;;;39.08;18.90;;;;;;;;;;4991455;28;20039;-73
2021/12/03 01:04:21;;;;;;;51.70;20.15;;;;;;;;;;4994057;28;20050;-74
2021/12/03 01:06:48;;;;;;;44.53;20.13;;;;;;;;;;4974459;28;20041;-74
2021/12/03 01:09:14;;;;;;;47.22;20.10;;;;;;;;;;4980739;28;20022;-73
2021/12/03 01:11:40;;;;;;;45.60;20.88;;;;;;;;;;4993277;28;20031;-73
2021/12/03 01:14:06;;;;;;;44.80;20.52;;;;;;;;;;4973257;28;20097;-73
2021/12/03 01:16:32;;;;;;;42.70;20.08;;;;;;;;;;4974280;28;20050;-73
2021/12/03 01:18:58;;;;;;;46.92;20.05;;;;;;;;;;4976295;28;20027;-73
2021/12/03 01:21:25;;;;;;;47.35;20.60;;;;;;;;;;4980697;28;20072;-73
2021/12/03 01:23:52;;;;;;;51.20;19.55;;;;;;;;;;4986754;28;20117;-72
2021/12/03 01:26:19;;;;;;;41.47;18.05;;;;;;;;;;4975473;28;20046;-74
2021/12/03 01:28:45;;;;;;;34.90;17.25;;;;;;;;;;4976109;28;20073;-73
2021/12/03 01:31:11;;;;;;;37.03;16.45;;;;;;;;;;4978287;28;20027;-73
2021/12/03 01:33:37;;;;;;;37.50;17.15;;;;;;;;;;4978817;28;20035;-73
2021/12/03 01:36:04;;;;;;;38.03;15.75;;;;;;;;;;4976176;28;20118;-73
2021/12/03 01:38:30;;;;;;;36.85;15.00;;;;;;;;;;4972688;28;20035;-72
2021/12/03 01:40:56;;;;;;;32.90;13.75;;;;;;;;;;4977313;28;20018;-72
2021/12/03 01:43:24;;;;;;;32.47;14.55;;;;;;;;;;4973724;28;20027;-72
2021/12/03 01:45:55;;;;;;;28.92;13.82;;;;;;;;;;4995478;28;20023;-72
2021/12/03 01:48:21;;;;;;;31.45;15.27;;;;;;;;;;4973459;28;20065;-72
2021/12/03 01:50:47;;;;;;;28.40;13.15;;;;;;;;;;4978015;28;20080;-74
2021/12/03 01:53:15;;;;;;;41.35;13.38;;;;;;;;;;4974495;28;20103;-73
2021/12/03 01:55:42;;;;;;;24.35;12.70;;;;;;;;;;4979364;28;20030;-73
2021/12/03 01:58:08;;;;;;;32.22;11.82;;;;;;;;;;4987852;28;20475;-73
2021/12/03 02:00:43;;;;;;;30.02;12.60;;;;;;;;;;4975734;28;20034;-73
2021/12/03 02:03:10;;;;;;;29.13;12.48;;;;;;;;;;4970203;28;20058;-74
2021/12/03 02:05:37;;;;;;;25.38;10.88;;;;;;;;;;4976450;28;20045;-73
2021/12/03 02:08:04;;;;;;;32.50;10.50;;;;;;;;;;4973445;28;20121;-73
2021/12/03 02:10:30;;;;;;;25.75;10.63;;;;;;;;;;4974319;28;20027;-72
2021/12/03 02:12:57;;;;;;;28.85;9.65;;;;;;;;;;4973140;28;20045;-73
2021/12/03 02:15:23;;;;;;;27.92;9.40;;;;;;;;;;4971341;28;20118;-73
2021/12/03 02:17:50;;;;;;;29.63;10.27;;;;;;;;;;4989088;28;20022;-73
2021/12/03 02:20:16;;;;;;;24.15;9.25;;;;;;;;;;4973054;28;20924;-73
2021/12/03 02:22:42;;;;;;;24.73;8.13;;;;;;;;;;4970029;28;20111;-73
2021/12/03 02:25:11;;;;;;;14.18;6.88;;;;;;;;;;4976577;28;20038;-72
2021/12/03 02:27:37;;;;;;;18.75;6.57;;;;;;;;;;4970317;28;20034;-74
2021/12/03 02:30:05;;;;;;;17.20;6.97;;;;;;;;;;4986310;28;20291;-72
2021/12/03 02:32:31;;;;;;;18.98;6.55;;;;;;;;;;4970062;28;20071;-74
2021/12/03 02:34:57;;;;;;;13.90;6.03;;;;;;;;;;4989199;28;20055;-72
2021/12/03 02:37:23;;;;;;;17.88;6.40;;;;;;;;;;4965703;28;20190;-73
2021/12/03 02:39:49;;;;;;;14.95;5.10;;;;;;;;;;4969462;28;20093;-72
2021/12/03 02:42:15;;;;;;;21.85;5.68;;;;;;;;;;4988519;28;20034;-72
2021/12/03 02:44:42;;;;;;;20.20;5.95;;;;;;;;;;4975123;28;20440;-72
2021/12/03 02:47:08;;;;;;;14.88;4.93;;;;;;;;;;4985461;28;20507;-73
2021/12/03 02:49:41;;;;;;;14.18;4.80;;;;;;;;;;4969111;28;20065;-72
2021/12/03 02:52:08;;;;;;;15.25;4.78;;;;;;;;;;4968137;28;20170;-73
2021/12/03 02:54:34;;;;;;;20.67;5.20;;;;;;;;;;4973233;28;20503;-72
2021/12/03 02:57:01;;;;;;;19.92;3.80;;;;;;;;;;4973635;28;20034;-72
2021/12/03 02:59:27;;;;;;;14.57;5.38;;;;;;;;;;4974427;28;20030;-72
2021/12/03 03:01:53;;;;;;;15.75;4.47;;;;;;;;;;4970376;28;20571;-71
2021/12/03 03:04:19;;;;;;;12.45;4.18;;;;;;;;;;4975109;28;20046;-72
2021/12/03 03:06:45;;;;;;;11.02;4.00;;;;;;;;;;4972354;28;20495;-72
2021/12/03 03:09:12;;;;;;;12.98;3.67;;;;;;;;;;4973801;28;20377;-72
2021/12/03 03:11:38;;;;;;;10.60;3.67;;;;;;;;;;4975301;28;20050;-72
2021/12/03 03:14:05;;;;;;;21.73;4.28;;;;;;;;;;4972168;28;20034;-72
2021/12/03 03:16:31;;;;;;;10.10;3.60;;;;;;;;;;4993309;28;20030;-72
2021/12/03 03:18:58;;;;;;;7.95;3.33;;;;;;;;;;4973899;28;20023;-73
2021/12/03 03:21:24;;;;;;;30.80;4.40;;;;;;;;;;4985978;28;20412;-72
2021/12/03 03:23:50;;;;;;;9.85;3.45;;;;;;;;;;4974309;28;20026;-72
2021/12/03 03:26:17;;;;;;;8.23;3.97;;;;;;;;;;4971029;28;20906;-73
2021/12/03 03:28:44;;;;;;;16.38;4.10;;;;;;;;;;4975880;28;20080;-72
2021/12/03 03:31:11;;;;;;;11.60;3.85;;;;;;;;;;4988907;28;20057;-72
2021/12/03 03:33:37;;;;;;;21.83;4.70;;;;;;;;;;4975530;28;20030;-73
2021/12/03 03:36:03;;;;;;;15.00;4.22;;;;;;;;;;4986915;28;20093;-73
2021/12/03 03:38:29;;;;;;;11.82;4.63;;;;;;;;;;4987781;28;20105;-73
2021/12/03 03:40:56;;;;;;;21.70;5.63;;;;;;;;;;4970775;28;20023;-73
2021/12/03 03:43:22;;;;;;;13.30;4.90;;;;;;;;;;4972122;28;20029;-72
2021/12/03 03:45:49;;;;;;;13.80;5.72;;;;;;;;;;4978200;28;20073;-72
2021/12/03 03:48:15;;;;;;;15.88;5.07;;;;;;;;;;4974777;28;20037;-72
2021/12/03 03:50:41;;;;;;;14.52;5.75;;;;;;;;;;4974593;28;20027;-73
2021/12/03 03:53:07;;;;;;;16.98;5.78;;;;;;;;;;4979070;28;20031;-73
2021/12/03 03:55:33;;;;;;;13.35;5.70;;;;;;;;;;4977824;28;20033;-73
2021/12/03 03:58:00;;;;;;;16.23;5.57;;;;;;;;;;4973890;28;21959;-73
2021/12/03 04:00:30;;;;;;;17.75;5.65;;;;;;;;;;4976813;28;20109;-73
2021/12/03 04:02:56;;;;;;;15.95;5.60;;;;;;;;;;4973921;28;20026;-73
2021/12/03 04:05:22;;;;;;;11.98;5.72;;;;;;;;;;4975173;28;20077;-72
2021/12/03 04:07:48;;;;;;;21.08;7.78;;;;;;;;;;4976731;28;20043;-73
2021/12/03 04:10:14;;;;;;;16.58;6.40;;;;;;;;;;4977902;28;20038;-73
2021/12/03 04:12:41;;;;;;;25.20;7.30;;;;;;;;;;4981426;28;20121;-73
2021/12/03 04:15:08;;;;;;;13.98;6.10;;;;;;;;;;4981596;28;20164;-72
2021/12/03 04:17:34;;;;;;;16.10;6.68;;;;;;;;;;4977003;28;20034;-73
2021/12/03 04:20:00;;;;;;;15.98;5.82;;;;;;;;;;4978513;28;20042;-72
2021/12/03 04:22:26;;;;;;;13.93;5.05;;;;;;;;;;4986836;28;20454;-72
2021/12/03 04:24:54;;;;;;;16.13;4.97;;;;;;;;;;4972988;28;20034;-72
2021/12/03 04:27:20;;;;;;;13.55;5.78;;;;;;;;;;4979358;28;20125;-72
2021/12/03 04:29:47;;;;;;;16.95;5.78;;;;;;;;;;4976267;28;20049;-73
2021/12/03 04:32:13;;;;;;;15.68;5.35;;;;;;;;;;4973088;28;20385;-73
2021/12/03 04:34:39;;;;;;;29.98;7.45;;;;;;;;;;4974752;28;20065;-72
2021/12/03 04:37:06;;;;;;;15.15;5.40;;;;;;;;;;4968456;28;21568;-72
2021/12/03 04:39:32;;;;;;;15.13;5.63;;;;;;;;;;4972465;28;20022;-72
2021/12/03 04:41:58;;;;;;;14.20;5.40;;;;;;;;;;4979910;28;20035;-72
2021/12/03 04:44:24;;;;;;;15.35;5.47;;;;;;;;;;4961246;28;20046;-72
2021/12/03 04:46:50;;;;;;;16.15;6.60;;;;;;;;;;4962451;28;20019;-72
2021/12/03 04:49:16;;;;;;;18.23;7.05;;;;;;;;;;4963098;28;20062;-73
2021/12/03 04:51:42;;;;;;;16.60;7.10;;;;;;;;;;4965535;28;20454;-73
2021/12/03 04:54:08;;;;;;;15.48;8.05;;;;;;;;;;4961359;28;20507;-73
2021/12/03 04:56:34;;;;;;;20.15;9.35;;;;;;;;;;4979754;28;20075;-72
2021/12/03 04:59:01;;;;;;;16.17;8.95;;;;;;;;;;4965677;28;20130;-72
2021/12/03 05:01:27;;;;;;;17.85;9.20;;;;;;;;;;4965413;28;20043;-73
2021/12/03 05:03:53;;;;;;;17.55;9.50;;;;;;;;;;4985609;28;20046;-73
2021/12/03 05:06:29;;;;;;;23.58;10.98;;;;;;;;;;4991030;28;20483;-72
2021/12/03 05:08:55;;;;;;;20.48;9.98;;;;;;;;;;4977323;28;20534;-73
2021/12/03 05:11:21;;;;;;;23.83;10.52;;;;;;;;;;4984297;28;20027;-74
2021/12/03 05:13:47;;;;;;;18.30;9.10;;;;;;;;;;4971384;28;20393;-73
2021/12/03 05:16:13;;;;;;;22.92;9.98;;;;;;;;;;4974317;28;20027;-73
2021/12/03 05:18:44;;;;;;;24.30;10.13;;;;;;;;;;4978402;28;20089;-73
2021/12/03 05:21:10;;;;;;;19.38;8.48;;;;;;;;;;4971644;28;20038;-73
2021/12/03 05:23:36;;;;;;;18.13;8.35;;;;;;;;;;4976494;28;20034;-73
2021/12/03 05:26:04;;;;;;;20.67;8.32;;;;;;;;;;4970752;28;20030;-72
2021/12/03 05:28:31;;;;;;;27.33;7.57;;;;;;;;;;4958110;28;20472;-73
2021/12/03 05:30:57;;;;;;;14.68;6.22;;;;;;;;;;4975190;28;20025;-72
2021/12/03 05:33:23;;;;;;;14.73;6.25;;;;;;;;;;4969178;28;20177;-72
2021/12/03 05:35:49;;;;;;;22.45;7.18;;;;;;;;;;4974714;28;20050;-72
2021/12/03 05:38:15;;;;;;;22.40;8.20;;;;;;;;;;4972920;28;20038;-70
2021/12/03 05:40:42;;;;;;;14.75;8.77;;;;;;;;;;4975243;28;20035;-73
2021/12/03 05:43:08;;;;;;;18.88;9.48;;;;;;;;;;4968832;28;20034;-75
2021/12/03 05:45:35;;;;;;;20.58;10.65;;;;;;;;;;4976177;28;20347;-73
2021/12/03 05:48:01;;;;;;;18.40;11.25;;;;;;;;;;4972169;28;20039;-73
2021/12/03 05:50:28;;;;;;;29.98;12.38;;;;;;;;;;4971128;28;20025;-73
2021/12/03 05:52:57;;;;;;;34.35;13.40;;;;;;;;;;4975231;28;20439;-73
2021/12/03 05:55:24;;;;;;;23.83;13.68;;;;;;;;;;4977987;28;20121;-73
2021/12/03 05:57:50;;;;;;;30.42;15.55;;;;;;;;;;4973252;28;20072;-73
2021/12/03 06:00:17;;;;;;;29.50;15.50;;;;;;;;;;4974555;28;20414;-73
2021/12/03 06:02:44;;;;;;;33.25;15.35;;;;;;;;;;4975552;28;20109;-73
2021/12/03 06:05:10;;;;;;;29.70;15.45;;;;;;;;;;4988008;28;20055;-72
2021/12/03 06:07:36;;;;;;;32.00;15.13;;;;;;;;;;4974095;28;20038;-71
2021/12/03 06:10:02;;;;;;;39.25;14.23;;;;;;;;;;4974225;28;20109;-73
2021/12/03 06:12:28;;;;;;;33.88;14.38;;;;;;;;;;4972922;28;20460;-73
2021/12/03 06:14:54;;;;;;;37.80;14.90;;;;;;;;;;4985863;28;20074;-72
2021/12/03 06:17:20;;;;;;;34.45;14.65;;;;;;;;;;4968886;28;20027;-72
2021/12/03 06:19:46;;;;;;;40.28;14.73;;;;;;;;;;4970678;28;20043;-73
2021/12/03 06:22:12;;;;;;;35.10;15.02;;;;;;;;;;4973956;28;20105;-74
2021/12/03 06:24:40;;;;;;;31.73;13.05;;;;;;;;;;4983395;28;20030;-74
2021/12/03 06:27:07;;;;;;;33.17;14.00;;;;;;;;;;4966898;28;20030;-74
2021/12/03 06:29:33;;;;;;;36.78;13.75;;;;;;;;;;4971432;28;20027;-74
2021/12/03 06:31:59;;;;;;;34.50;13.50;;;;;;;;;;4970133;28;20041;-74
2021/12/03 06:34:25;;;;;;;31.02;13.68;;;;;;;;;;4968397;28;20265;-74
2021/12/03 06:36:51;;;;;;;33.08;13.30;;;;;;;;;;4982484;28;20023;-72
2021/12/03 06:39:17;;;;;;;39.35;14.07;;;;;;;;;;4993267;28;20348;-74
2021/12/03 06:41:43;;;;;;;42.28;14.95;;;;;;;;;;4965289;28;20500;-73
2021/12/03 06:44:09;;;;;;;35.45;13.35;;;;;;;;;;4990541;28;20518;-74
2021/12/03 06:46:36;;;;;;;34.90;13.23;;;;;;;;;;4972288;28;20480;-75
2021/12/03 06:49:03;;;;;;;29.48;13.13;;;;;;;;;;4971809;28;20039;-73
2021/12/03 06:51:29;;;;;;;33.08;13.35;;;;;;;;;;4970982;28;20019;-74
2021/12/03 06:54:04;;;;;;;35.70;15.77;;;;;;;;;;4972135;28;20023;-73
2021/12/03 06:56:44;;;;;;;40.72;13.57;;;;;;;;;;4978479;28;20418;-74
2021/12/03 06:59:10;;;;;;;40.67;13.10;;;;;;;;;;4964752;28;20081;-74
2021/12/03 07:01:36;;;;;;;31.65;13.68;;;;;;;;;;4986083;28;20046;-73
2021/12/03 07:04:02;;;;;;;41.10;14.80;;;;;;;;;;4964354;28;20368;-73
2021/12/03 07:06:28;;;;;;;43.08;14.18;;;;;;;;;;4985702;28;20133;-73
2021/12/03 07:08:54;;;;;;;36.47;14.38;;;;;;;;;;4986606;28;20040;-73
2021/12/03 07:11:20;;;;;;;34.95;13.68;;;;;;;;;;4967048;28;20476;-74
2021/12/03 07:13:48;;;;;;;30.63;12.93;;;;;;;;;;4988824;28;20492;-73
2021/12/03 07:16:14;;;;;;;36.40;12.75;;;;;;;;;;4990976;28;20405;-75
2021/12/03 07:18:40;;;;;;;42.08;12.95;;;;;;;;;;4989393;28;20026;-73
2021/12/03 07:21:06;;;;;;;34.17;12.20;;;;;;;;;;4987166;28;20029;-74
2021/12/03 07:23:32;;;;;;;30.25;10.77;;;;;;;;;;4969430;28;20037;-74
2021/12/03 07:25:59;;;;;;;30.05;12.45;;;;;;;;;;4969384;28;20031;-73
2021/12/03 07:28:25;;;;;;;24.27;10.63;;;;;;;;;;4977128;28;20545;-74
2021/12/03 07:30:51;;;;;;;25.95;10.07;;;;;;;;;;4972912;28;20085;-73
2021/12/03 07:33:18;;;;;;;29.38;10.38;;;;;;;;;;4976324;28;20021;-73
2021/12/03 07:35:46;;;;;;;28.23;10.32;;;;;;;;;;4989327;28;20097;-72
2021/12/03 07:38:17;;;;;;;26.52;9.82;;;;;;;;;;4973534;28;20030;-74
2021/12/03 07:40:43;;;;;;;29.98;9.18;;;;;;;;;;4993650;28;20479;-75
2021/12/03 07:43:09;;;;;;;27.35;9.13;;;;;;;;;;4978934;28;20035;-74
2021/12/03 07:45:36;;;;;;;20.65;7.65;;;;;;;;;;4969013;28;20034;-74
2021/12/03 07:48:02;;;;;;;23.73;9.48;;;;;;;;;;4970415;28;20038;-73
2021/12/03 07:50:28;;;;;;;27.50;9.20;;;;;;;;;;4970775;28;21409;-74
2021/12/03 07:52:54;;;;;;;31.73;8.45;;;;;;;;;;4973866;28;20050;-72
2021/12/03 07:55:21;;;;;;;20.77;7.00;;;;;;;;;;4990568;28;20027;-75
2021/12/03 07:57:47;;;;;;;20.63;7.75;;;;;;;;;;4972297;28;20054;-74
2021/12/03 08:00:13;;;;;;;23.55;9.00;;;;;;;;;;4970337;28;20084;-74
2021/12/03 08:02:39;;;;;;;29.33;8.75;;;;;;;;;;4973422;28;20201;-73
2021/12/03 08:05:05;;;;;;;33.55;9.55;;;;;;;;;;4973872;28;20129;-74
2021/12/03 08:07:32;;;;;;;21.80;8.45;;;;;;;;;;4968685;28;20042;-73
2021/12/03 08:09:58;;;;;;;33.78;10.00;;;;;;;;;;4973881;28;20608;-73
2021/12/03 08:12:24;;;;;;;22.35;8.48;;;;;;;;;;4973621;28;20122;-73
2021/12/03 08:14:50;;;;;;;22.40;8.05;;;;;;;;;;4971131;28;20026;-70
2021/12/03 08:17:16;;;;;;;29.58;7.85;;;;;;;;;;4977211;28;20483;-69
2021/12/03 08:19:42;;;;;;;22.52;7.60;;;;;;;;;;4963441;28;20045;-70
2021/12/03 08:22:08;;;;;;;24.08;8.43;;;;;;;;;;4980467;28;20029;-69
2021/12/03 08:24:34;;;;;;;22.90;7.90;;;;;;;;;;4962855;28;20039;-69
2021/12/03 08:27:00;;;;;;;19.05;7.50;;;;;;;;;;4964145;28;20038;-70
2021/12/03 08:29:27;;;;;;;28.75;9.60;;;;;;;;;;4967453;28;20039;-69
2021/12/03 08:31:53;;;;;;;19.67;7.95;;;;;;;;;;4972481;28;20062;-69
2021/12/03 08:34:19;;;;;;;30.27;8.02;;;;;;;;;;4975736;28;20042;-69
2021/12/03 08:36:46;;;;;;;19.77;7.68;;;;;;;;;;4976237;28;20133;-69
2021/12/03 08:39:12;;;;;;;30.15;7.93;;;;;;;;;;4974201;28;20031;-69
2021/12/03 08:41:38;;;;;;;20.13;7.80;;;;;;;;;;4975476;28;20358;-69
2021/12/03 08:44:04;;;;;;;30.70;9.00;;;;;;;;;;4975424;28;20129;-69
2021/12/03 08:46:38;;;;;;;20.13;7.30;;;;;;;;;;4975683;28;20081;-69
2021/12/03 08:51:59;;;;;;;29.75;8.98;;;;;;;;;;4970803;28;20037;-70
2021/12/03 08:57:10;;;;;;;24.08;7.75;;;;;;;;;;4979819;28;20073;-68
2021/12/03 08:59:36;;;;;;;30.38;9.52;;;;;;;;;;4974763;28;20057;-69
2021/12/03 09:02:03;;;;;;;25.10;8.38;;;;;;;;;;4976642;28;20049;-68
2021/12/03 09:04:29;;;;;;;27.55;8.88;;;;;;;;;;4978064;28;20488;-69
2021/12/03 09:06:57;;;;;;;22.73;9.07;;;;;;;;;;4970702;28;20039;-69
2021/12/03 09:09:23;;;;;;;32.30;10.30;;;;;;;;;;4973246;28;21255;-68
2021/12/03 09:11:49;;;;;;;35.67;11.63;;;;;;;;;;4975285;28;20038;-68
2021/12/03 09:17:40;;;;;;;22.40;8.02;;;;;;;;;;4977591;28;20057;-68
2021/12/03 09:20:05;;;;;;;32.15;8.10;;;;;;;;;;4972681;28;20058;-68
2021/12/03 09:25:01;;;;;;;25.35;8.20;;;;;;;;;;4973388;28;20172;-68
2021/12/03 09:27:28;;;;;;;28.42;7.22;;;;;;;;;;4968905;28;20070;-69
2021/12/03 09:29:55;;;;;;;24.23;7.35;;;;;;;;;;4971109;28;20039;-69
2021/12/03 09:32:25;;;;;;;23.05;7.82;;;;;;;;;;4967566;28;20022;-69
2021/12/03 09:34:51;;;;;;;25.65;8.25;;;;;;;;;;4967938;28;20031;-69
2021/12/03 09:37:17;;;;;;;22.13;6.90;;;;;;;;;;4971714;28;20037;-68
2021/12/03 09:39:45;;;;;;;25.08;7.00;;;;;;;;;;4969437;28;20050;-69
2021/12/03 09:42:12;;;;;;;22.67;6.13;;;;;;;;;;4964277;28;20079;-68
2021/12/03 09:44:39;;;;;;;23.98;6.32;;;;;;;;;;4970361;28;20051;-67
2021/12/03 09:47:06;;;;;;;23.08;6.80;;;;;;;;;;4972278;28;20031;-68
2021/12/03 09:49:34;;;;;;;33.38;7.80;;;;;;;;;;4978735;28;20023;-67
2021/12/03 09:52:08;;;;;;;22.27;5.57;;;;;;;;;;4970692;28;20042;-67
2021/12/03 09:54:39;;;;;;;22.77;7.43;;;;;;;;;;4994459;28;20510;-67
2021/12/03 09:57:10;;;;;;;18.75;5.80;;;;;;;;;;4979471;28;20027;-68
2021/12/03 10:02:54;;;;;;;24.50;6.20;;;;;;;;;;4948240;28;20047;-67
2021/12/03 10:12:49;;;;;;;40.10;8.82;;;;;;;;;;4966587;28;20034;-68
2021/12/03 10:21:03;;;;;;;25.85;7.18;;;;;;;;;;4967470;28;20042;-70
2021/12/03 10:46:42;;;;;;;21.58;7.57;;;;;;;;;;4971687;28;20046;-68
2021/12/03 11:06:19;;;;;;;24.30;7.55;;;;;;;;;;4969383;28;20109;-68
2021/12/03 11:11:15;;;;;;;17.35;7.47;;;;;;;;;;4966542;28;20038;-69
2021/12/03 11:30:46;;;;;;;23.90;6.55;;;;;;;;;;4973220;28;20077;-68
2021/12/03 11:39:38;;;;;;;19.63;6.57;;;;;;;;;;4971700;28;20504;-69
2021/12/03 12:29:11;;;;;;;15.02;5.15;;;;;;;;;;4966522;28;20278;-68
2021/12/03 14:08:36;;;;;;;17.70;8.27;;;;;;;;;;4977718;28;20047;-69
2021/12/03 14:56:16;;;;;;;16.92;14.63;;;;;;;;;;4969539;28;20026;-68
2021/12/03 14:58:51;;;;;;;24.90;16.67;;;;;;;;;;4968719;28;20022;-69
2021/12/03 15:04:08;;;;;;;20.92;17.20;;;;;;;;;;4977773;28;20499;-69
2021/12/03 15:06:41;;;;;;;25.35;18.85;;;;;;;;;;4972353;28;20491;-69
2021/12/03 15:09:26;;;;;;;24.17;18.42;;;;;;;;;;4974447;28;20975;-69
2021/12/03 15:28:06;;;;;;;30.95;22.75;;;;;;;;;;4963345;28;20102;-68
2021/12/03 15:36:10;;;;;;;35.85;26.42;;;;;;;;;;4968146;28;20517;-69
2021/12/03 16:08:02;;;;;;;35.97;28.30;;;;;;;;;;4969625;28;20051;-68
2021/12/03 16:10:34;;;;;;;37.55;27.25;;;;;;;;;;4971759;28;20062;-68
2021/12/03 16:16:14;;;;;;;35.30;24.90;;;;;;;;;;4971832;28;20452;-68
2021/12/03 16:18:46;;;;;;;35.45;26.98;;;;;;;;;;4987848;28;20026;-69
2021/12/03 16:53:04;;;;;;;46.05;32.10;;;;;;;;;;4967025;28;20074;-69
2021/12/03 16:55:31;;;;;;;46.13;33.22;;;;;;;;;;4969215;28;20030;-69
2021/12/03 16:57:57;;;;;;;44.60;31.63;;;;;;;;;;4971039;28;20031;-68
2021/12/03 17:00:40;;;;;;;46.95;34.33;;;;;;;;;;4973626;28;20038;-69
2021/12/03 17:24:44;;;;;;;58.13;36.63;;;;;;;;;;4972541;28;20137;-69
2021/12/03 17:54:27;;;;;;;48.58;35.83;;;;;;;;;;4969596;28;20098;-70
2021/12/03 17:56:55;;;;;;;49.28;35.80;;;;;;;;;;4972973;28;20125;-69
2021/12/03 17:59:30;;;;;;;54.70;38.83;;;;;;;;;;4973137;28;20089;-69
2021/12/03 18:02:11;;;;;;;53.72;37.72;;;;;;;;;;4971210;28;20038;-70
2021/12/03 18:12:51;;;;;;;50.47;35.35;;;;;;;;;;4974906;28;20171;-69
2021/12/03 18:45:44;;;;;;;46.47;33.50;;;;;;;;;;4973702;28;20041;-70
2021/12/03 18:56:23;;;;;;;51.00;34.80;;;;;;;;;;4971634;28;20026;-68
2021/12/03 18:58:56;;;;;;;49.15;33.38;;;;;;;;;;4967791;28;20117;-68
2021/12/03 19:01:27;;;;;;;57.80;37.80;;;;;;;;;;4968496;28;20514;-70
2021/12/03 19:04:08;;;;;;;59.42;35.83;;;;;;;;;;4966825;28;20027;-68
2021/12/03 19:09:15;;;;;;;52.50;35.50;;;;;;;;;;4958452;28;20069;-68
2021/12/03 19:14:10;;;;;;;49.22;32.55;;;;;;;;;;4966654;28;20379;-67
2021/12/03 19:16:36;;;;;;;53.08;34.42;;;;;;;;;;4971703;28;20038;-68
2021/12/03 19:19:04;;;;;;;52.83;34.63;;;;;;;;;;4971441;28;20038;-68
2021/12/03 19:21:38;;;;;;;54.72;36.15;;;;;;;;;;4987315;28;20436;-68
2021/12/03 19:24:04;;;;;;;55.28;37.30;;;;;;;;;;4970322;28;20035;-68
2021/12/03 19:26:32;;;;;;;57.95;35.35;;;;;;;;;;4970294;28;20049;-69
2021/12/03 19:29:00;;;;;;;56.55;36.95;;;;;;;;;;4967203;28;20027;-69
2021/12/03 19:31:26;;;;;;;57.33;35.58;;;;;;;;;;4964118;28;20054;-70
2021/12/03 19:33:52;;;;;;;58.58;35.92;;;;;;;;;;4967049;28;20027;-69
2021/12/03 19:36:25;;;;;;;54.88;34.50;;;;;;;;;;4969492;28;20031;-69
2021/12/03 19:38:53;;;;;;;59.00;37.58;;;;;;;;;;4968617;28;20484;-69
2021/12/03 19:41:29;;;;;;;59.40;36.92;;;;;;;;;;4967238;28;20027;-69
2021/12/03 19:43:57;;;;;;;52.78;34.35;;;;;;;;;;4964828;28;20039;-70
2021/12/03 19:46:28;;;;;;;57.33;36.92;;;;;;;;;;4981737;28;20035;-70
2021/12/03 19:51:21;;;;;;;56.88;35.45;;;;;;;;;;4967540;28;20069;-70
2021/12/03 19:54:09;;;;;;;53.95;35.65;;;;;;;;;;4967721;28;20458;-70
2021/12/03 19:56:35;;;;;;;50.50;33.22;;;;;;;;;;4969997;28;20484;-71
2021/12/03 19:59:01;;;;;;;57.53;33.67;;;;;;;;;;4967864;28;20035;-70
2021/12/03 20:01:28;;;;;;;54.88;34.70;;;;;;;;;;4965645;28;20507;-70
2021/12/03 20:03:54;;;;;;;56.33;34.45;;;;;;;;;;4967959;28;20039;-70
2021/12/03 20:06:21;;;;;;;55.17;35.00;;;;;;;;;;4963646;28;20122;-70
2021/12/03 20:08:51;;;;;;;55.55;34.13;;;;;;;;;;4966386;28;20022;-70
2021/12/03 20:11:17;;;;;;;52.80;33.95;;;;;;;;;;4968589;28;20027;-68
2021/12/03 20:13:47;;;;;;;53.40;34.35;;;;;;;;;;4981468;28;20045;-70
2021/12/03 20:18:50;;;;;;;50.83;33.33;;;;;;;;;;4966273;28;20058;-68
2021/12/03 20:21:18;;;;;;;52.17;33.03;;;;;;;;;;4966283;28;20034;-68
2021/12/03 20:24:02;;;;;;;54.70;35.10;;;;;;;;;;4968151;28;20232;-69
2021/12/03 20:28:59;;;;;;;50.22;31.65;;;;;;;;;;4971271;28;20162;-69
2021/12/03 20:31:27;;;;;;;48.17;31.85;;;;;;;;;;4971493;28;20037;-70
2021/12/03 20:36:58;;;;;;;46.85;31.05;;;;;;;;;;4964808;28;20034;-70
2021/12/03 20:39:31;;;;;;;51.88;32.35;;;;;;;;;;4984557;28;20027;-70
2021/12/03 20:47:35;;;;;;;45.70;29.90;;;;;;;;;;4963776;28;20157;-70
2021/12/03 20:50:03;;;;;;;42.53;29.70;;;;;;;;;;4965939;28;20034;-71
2021/12/03 21:08:51;;;;;;;42.65;28.42;;;;;;;;;;4967680;28;20089;-69
2021/12/03 21:11:25;;;;;;;44.22;29.67;;;;;;;;;;4970144;28;20066;-68
2021/12/03 21:13:56;;;;;;;42.15;28.45;;;;;;;;;;4970143;28;20034;-69
2021/12/03 21:19:15;;;;;;;41.67;28.20;;;;;;;;;;4971297;28;20464;-70
2021/12/03 21:21:45;;;;;;;43.83;28.88;;;;;;;;;;4975741;28;20053;-70
2021/12/03 21:24:12;;;;;;;45.15;29.10;;;;;;;;;;4973930;28;20041;-68
2021/12/03 21:26:40;;;;;;;45.03;29.63;;;;;;;;;;4970145;28;20049;-68
2021/12/03 21:42:06;;;;;;;42.35;28.38;;;;;;;;;;4972478;28;20037;-70
2021/12/03 21:44:32;;;;;;;45.08;29.02;;;;;;;;;;4968755;28;20027;-70
2021/12/03 21:46:58;;;;;;;45.30;29.55;;;;;;;;;;4969788;28;20045;-70
2021/12/03 21:49:24;;;;;;;45.67;28.63;;;;;;;;;;4968085;28;20027;-68
2021/12/03 21:51:50;;;;;;;44.08;29.17;;;;;;;;;;4983215;28;20376;-69
2021/12/03 21:54:19;;;;;;;46.83;30.75;;;;;;;;;;4970964;28;20035;-69
2021/12/03 21:56:46;;;;;;;45.95;28.75;;;;;;;;;;4972989;28;20027;-70
2021/12/03 21:59:19;;;;;;;44.47;29.23;;;;;;;;;;4967271;28;20031;-69
2021/12/03 22:01:45;;;;;;;48.22;29.20;;;;;;;;;;4989039;28;20042;-69
2021/12/03 22:04:11;;;;;;;45.42;28.98;;;;;;;;;;4968658;28;20030;-69
2021/12/03 22:06:38;;;;;;;47.85;29.85;;;;;;;;;;4966907;28;20070;-70
2021/12/03 22:09:05;;;;;;;46.78;29.85;;;;;;;;;;4967218;28;20271;-69
2021/12/03 22:11:31;;;;;;;46.20;30.42;;;;;;;;;;4966227;28;20031;-70
2021/12/03 22:13:58;;;;;;;48.85;29.90;;;;;;;;;;4967510;28;20170;-69
2021/12/03 22:16:24;;;;;;;46.15;29.58;;;;;;;;;;4975189;28;20513;-69
2021/12/03 22:19:08;;;;;;;45.97;29.95;;;;;;;;;;4971855;28;20026;-70
2021/12/03 22:21:34;;;;;;;45.83;28.40;;;;;;;;;;4972138;28;20518;-68
2021/12/03 22:24:00;;;;;;;45.67;28.90;;;;;;;;;;4966764;28;20031;-69
2021/12/03 22:26:26;;;;;;;47.47;30.05;;;;;;;;;;4972093;28;20452;-69
2021/12/03 22:28:53;;;;;;;44.65;29.75;;;;;;;;;;4970817;28;20109;-69
2021/12/03 22:31:19;;;;;;;46.15;28.23;;;;;;;;;;4972911;28;20100;-69
2021/12/03 22:33:46;;;;;;;46.38;28.85;;;;;;;;;;4967981;28;20114;-69
2021/12/03 22:36:12;;;;;;;45.45;28.23;;;;;;;;;;4993260;28;20357;-68
2021/12/03 22:38:38;;;;;;;42.55;27.30;;;;;;;;;;4970933;28;20039;-70
2021/12/03 22:41:08;;;;;;;48.38;28.98;;;;;;;;;;4971085;28;20092;-69
2021/12/03 22:43:35;;;;;;;47.17;29.40;;;;;;;;;;4970413;28;20026;-69
2021/12/03 22:53:39;;;;;;;44.80;27.65;;;;;;;;;;4960666;28;20038;-69
2021/12/03 22:56:06;;;;;;;46.85;27.17;;;;;;;;;;4963821;28;20495;-69
2021/12/03 22:58:32;;;;;;;43.58;26.52;;;;;;;;;;4965878;28;20038;-69
2021/12/03 23:00:58;;;;;;;46.15;28.23;;;;;;;;;;4962711;28;20031;-70
2021/12/03 23:03:25;;;;;;;43.45;27.10;;;;;;;;;;4972697;28;20050;-70
2021/12/03 23:05:51;;;;;;;42.33;26.20;;;;;;;;;;4986936;28;20073;-69
2021/12/03 23:08:18;;;;;;;41.60;25.20;;;;;;;;;;4971380;28;20468;-70
2021/12/03 23:10:45;;;;;;;47.30;26.75;;;;;;;;;;4969672;28;20122;-70
2021/12/03 23:13:11;;;;;;;44.80;27.15;;;;;;;;;;4974656;28;20488;-70